Time;durP1;ratioP1;P1;durP2;ratioP2;P2;SDS_P1;SDS_P2;PMS_P1;PMS_P2;Temp;Humidity;BMP_temperature;BMP_pressure;BME280_temperature;BME280_humidity;BME280_pressure;Samples;Min_cycle;Max_cycle;Signal;HPM_P1;HPM_P2
2021/03/18 00:01:00;;;;;;;11.83;10.73;;;2.10;99.90;;;;;;5013058;28;20647;-91
2021/03/18 00:03:30;;;;;;;11.60;10.50;;;2.00;99.90;;;;;;5005787;28;20627;-89
2021/03/18 00:05:58;;;;;;;12.33;11.20;;;2.10;99.90;;;;;;5013942;28;20623;-90
2021/03/18 00:08:25;;;;;;;12.17;10.97;;;2.10;99.90;;;;;;5012347;28;20629;-90
2021/03/18 00:10:52;;;;;;;12.63;11.60;;;2.20;99.90;;;;;;5017984;28;20672;-89
2021/03/18 00:13:21;;;;;;;12.63;11.53;;;2.10;99.90;;;;;;5016546;28;20644;-90
2021/03/18 00:15:47;;;;;;;13.10;11.90;;;2.00;99.90;;;;;;5009968;28;20612;-90
2021/03/18 00:18:16;;;;;;;12.60;11.53;;;2.00;99.90;;;;;;5009957;28;20634;-90
2021/03/18 00:20:42;;;;;;;12.87;11.50;;;2.00;99.90;;;;;;5009955;28;20658;-88
2021/03/18 00:23:09;;;;;;;13.53;12.33;;;2.10;99.90;;;;;;5011669;28;20887;-89
2021/03/18 00:25:36;;;;;;;13.53;11.77;;;2.10;99.90;;;;;;5014066;28;20620;-90
2021/03/18 00:28:03;;;;;;;13.13;11.93;;;2.10;99.90;;;;;;5009131;28;21051;-90
2021/03/18 00:30:30;;;;;;;11.83;10.83;;;2.00;99.90;;;;;;5012391;28;20671;-90
2021/03/18 00:32:58;;;;;;;13.77;12.73;;;2.10;99.90;;;;;;5012389;28;20632;-90
2021/03/18 00:35:24;;;;;;;13.83;12.53;;;2.10;99.90;;;;;;5012611;28;20598;-89
2021/03/18 00:37:53;;;;;;;13.93;11.87;;;2.00;99.90;;;;;;5030982;28;20670;-90
2021/03/18 00:40:23;;;;;;;11.73;10.63;;;2.10;99.90;;;;;;5031143;28;20659;-91
2021/03/18 00:42:55;;;;;;;14.10;12.70;;;2.00;99.90;;;;;;5008726;28;20620;-89
2021/03/18 00:45:23;;;;;;;13.10;11.80;;;2.10;99.90;;;;;;5013705;28;20635;-90
2021/03/18 00:47:50;;;;;;;11.57;10.57;;;2.10;99.90;;;;;;5003739;28;20638;-91
2021/03/18 00:50:24;;;;;;;12.17;11.17;;;2.10;99.90;;;;;;5011417;28;20663;-91
2021/03/18 00:52:51;;;;;;;12.03;10.93;;;2.10;99.90;;;;;;5010258;28;20646;-91
2021/03/18 00:55:17;;;;;;;11.13;10.23;;;2.10;99.90;;;;;;5015019;28;20628;-91
2021/03/18 00:57:44;;;;;;;12.27;11.07;;;2.10;99.90;;;;;;5007093;28;20715;-90
2021/03/18 01:00:16;;;;;;;10.73;9.87;;;2.10;99.90;;;;;;5009409;28;20635;-91
2021/03/18 01:02:42;;;;;;;11.13;10.10;;;2.20;99.90;;;;;;5010374;28;20642;-90
2021/03/18 01:05:13;;;;;;;10.27;9.37;;;2.20;99.90;;;;;;4996724;28;21513;-91
2021/03/18 01:07:40;;;;;;;10.00;9.10;;;2.30;99.90;;;;;;4990040;28;20644;-88
2021/03/18 01:10:09;;;;;;;9.60;8.57;;;2.30;99.90;;;;;;5021487;28;20659;-88
2021/03/18 01:12:37;;;;;;;11.23;10.13;;;2.20;99.90;;;;;;5017254;28;20627;-91
2021/03/18 01:15:10;;;;;;;10.90;9.90;;;2.20;99.90;;;;;;4992801;28;20635;-91
2021/03/18 01:17:36;;;;;;;11.10;10.10;;;2.20;99.90;;;;;;5012077;28;20685;-91
2021/03/18 01:20:04;;;;;;;9.63;8.83;;;2.30;99.90;;;;;;5012384;28;20694;-91
2021/03/18 01:22:31;;;;;;;10.20;9.40;;;2.20;99.90;;;;;;5004733;28;20603;-91
2021/03/18 01:24:57;;;;;;;10.57;9.27;;;2.20;99.90;;;;;;5014852;28;20628;-90
2021/03/18 01:27:25;;;;;;;9.83;8.33;;;2.20;99.90;;;;;;5012328;28;20612;-91
2021/03/18 01:29:51;;;;;;;10.50;9.50;;;2.20;99.90;;;;;;5009940;28;20647;-91
2021/03/18 01:32:21;;;;;;;10.13;9.43;;;2.20;99.90;;;;;;5017454;28;20636;-92
2021/03/18 01:34:47;;;;;;;10.93;9.67;;;2.20;99.90;;;;;;5015149;28;20636;-89
2021/03/18 01:37:13;;;;;;;9.53;8.40;;;2.20;99.90;;;;;;5015793;28;21582;-91
2021/03/18 01:39:40;;;;;;;10.00;9.10;;;2.20;99.90;;;;;;5012103;28;20663;-90
2021/03/18 01:42:07;;;;;;;10.03;9.13;;;2.20;99.90;;;;;;5011610;28;20632;-91
2021/03/18 01:44:33;;;;;;;10.10;9.20;;;2.10;99.90;;;;;;5007148;28;20637;-91
2021/03/18 01:47:00;;;;;;;12.60;10.13;;;2.10;99.90;;;;;;5012443;28;20619;-91
2021/03/18 01:49:28;;;;;;;10.10;9.10;;;2.10;99.90;;;;;;5012765;28;20644;-91
2021/03/18 01:51:54;;;;;;;10.90;9.87;;;2.10;99.90;;;;;;5009592;28;20744;-91
2021/03/18 01:54:20;;;;;;;10.37;9.37;;;2.10;99.90;;;;;;4994606;28;20632;-91
2021/03/18 01:56:47;;;;;;;10.50;9.70;;;2.10;99.90;;;;;;5014811;28;20664;-91
2021/03/18 01:59:13;;;;;;;10.77;9.83;;;2.10;99.90;;;;;;5022049;28;20634;-89
2021/03/18 02:01:40;;;;;;;10.63;9.57;;;2.10;99.90;;;;;;5006002;28;21129;-89
2021/03/18 02:04:06;;;;;;;10.97;9.90;;;2.10;99.90;;;;;;5006261;28;20640;-90
2021/03/18 02:06:34;;;;;;;10.73;9.37;;;2.10;99.90;;;;;;5006439;28;20628;-90
2021/03/18 02:09:00;;;;;;;10.43;9.63;;;2.20;99.90;;;;;;5010060;28;20617;-90
2021/03/18 02:11:26;;;;;;;11.27;10.13;;;2.20;99.90;;;;;;5008140;28;20671;-90
2021/03/18 02:13:53;;;;;;;10.50;9.53;;;2.10;99.90;;;;;;5008796;28;20624;-90
2021/03/18 02:16:19;;;;;;;11.60;10.63;;;2.10;99.90;;;;;;5008816;28;20741;-89
2021/03/18 02:18:53;;;;;;;10.60;9.70;;;2.10;99.90;;;;;;5010820;28;20624;-90
2021/03/18 02:22:09;;;;;;;11.30;10.00;;;2.10;99.90;;;;;;5019555;28;20646;-90
2021/03/18 02:24:51;;;;;;;10.87;9.87;;;2.10;99.90;;;;;;5008229;28;20644;-90
2021/03/18 02:28:00;;;;;;;9.93;9.17;;;2.10;99.90;;;;;;5011593;28;20639;-90
2021/03/18 02:30:43;;;;;;;10.70;9.80;;;2.00;99.90;;;;;;5012534;28;20670;-90
2021/03/18 02:34:00;;;;;;;10.30;9.50;;;2.00;99.90;;;;;;5015026;28;20784;-90
2021/03/18 02:36:34;;;;;;;10.30;9.47;;;2.20;99.90;;;;;;4995618;28;20721;-90
2021/03/18 02:39:03;;;;;;;10.10;9.23;;;2.00;99.90;;;;;;5013091;28;20647;-90
2021/03/18 02:41:32;;;;;;;10.90;10.00;;;2.00;99.90;;;;;;5011705;28;20662;-90
2021/03/18 02:44:06;;;;;;;10.00;9.20;;;2.00;99.90;;;;;;5012338;28;20657;-90
2021/03/18 02:46:38;;;;;;;9.93;9.10;;;2.00;99.90;;;;;;5015295;28;20603;-89
2021/03/18 02:49:10;;;;;;;8.60;7.90;;;2.00;99.90;;;;;;5015877;28;20631;-89
2021/03/18 02:51:40;;;;;;;8.43;7.73;;;2.10;99.90;;;;;;5011533;28;21035;-89
2021/03/18 02:54:08;;;;;;;8.30;7.60;;;2.00;99.90;;;;;;5013876;28;20592;-89
2021/03/18 02:56:37;;;;;;;9.47;8.63;;;2.00;99.90;;;;;;5020666;28;20646;-88
2021/03/18 02:59:05;;;;;;;8.00;7.30;;;2.00;99.90;;;;;;5006795;28;20639;-86
2021/03/18 03:01:32;;;;;;;8.37;7.57;;;2.10;99.90;;;;;;5036330;28;20643;-88
2021/03/18 03:04:00;;;;;;;7.83;7.13;;;2.10;99.90;;;;;;5026371;28;20626;-89
2021/03/18 03:06:30;;;;;;;6.57;5.90;;;2.10;99.90;;;;;;5021118;28;20631;-89
2021/03/18 03:08:57;;;;;;;6.63;5.90;;;2.20;99.90;;;;;;5014738;28;20959;-89
2021/03/18 03:11:26;;;;;;;7.43;6.83;;;2.20;99.90;;;;;;5010568;28;21268;-89
2021/03/18 03:13:54;;;;;;;10.17;6.23;;;2.30;99.90;;;;;;5014331;28;20678;-89
2021/03/18 03:16:23;;;;;;;7.90;5.63;;;2.30;99.90;;;;;;5014448;28;20655;-88
2021/03/18 03:18:51;;;;;;;6.87;6.17;;;2.30;99.90;;;;;;5015528;28;20647;-90
2021/03/18 03:21:19;;;;;;;7.57;6.87;;;2.20;99.90;;;;;;5016294;28;20662;-90
2021/03/18 03:23:47;;;;;;;5.43;4.87;;;2.20;99.90;;;;;;5015678;28;20635;-90
2021/03/18 03:26:17;;;;;;;6.83;5.30;;;2.20;99.90;;;;;;5010019;28;20952;-91
2021/03/18 03:28:44;;;;;;;6.10;5.47;;;2.20;99.90;;;;;;5009923;28;20681;-89
2021/03/18 03:31:10;;;;;;;5.70;5.17;;;2.30;99.90;;;;;;5011310;28;20631;-90
2021/03/18 03:33:38;;;;;;;6.70;5.83;;;2.30;99.90;;;;;;5013442;28;20635;-90
2021/03/18 03:36:05;;;;;;;6.07;5.37;;;2.20;99.90;;;;;;5010400;28;21018;-91
2021/03/18 03:38:33;;;;;;;8.90;4.70;;;2.20;99.90;;;;;;5017374;28;20762;-91
2021/03/18 03:41:00;;;;;;;6.00;5.50;;;2.20;99.90;;;;;;4995052;28;21166;-91
2021/03/18 03:43:27;;;;;;;5.50;5.00;;;2.20;99.90;;;;;;5005932;28;20714;-90
2021/03/18 03:45:54;;;;;;;5.60;5.10;;;2.20;99.90;;;;;;5017389;28;21009;-91
2021/03/18 03:48:21;;;;;;;5.73;5.13;;;2.30;99.90;;;;;;5016702;28;20638;-90
2021/03/18 03:50:49;;;;;;;5.97;5.37;;;2.30;99.90;;;;;;4990029;28;20687;-91
2021/03/18 03:53:21;;;;;;;5.97;5.40;;;2.30;99.90;;;;;;4980743;28;20650;-90
2021/03/18 03:55:55;;;;;;;6.30;5.57;;;2.30;99.90;;;;;;5009697;28;20647;-90
2021/03/18 03:58:44;;;;;;;5.60;5.20;;;2.30;99.90;;;;;;5009733;28;20659;-92
2021/03/18 04:01:17;;;;;;;6.13;5.53;;;2.30;99.90;;;;;;4994858;28;20640;-91
2021/03/18 04:03:45;;;;;;;5.80;5.10;;;2.30;99.90;;;;;;5013737;28;20664;-91
2021/03/18 04:06:12;;;;;;;7.27;5.60;;;2.30;99.90;;;;;;5014917;28;20663;-92
2021/03/18 04:08:42;;;;;;;7.70;5.17;;;2.30;99.90;;;;;;5012262;28;21001;-91
2021/03/18 04:11:09;;;;;;;5.40;4.90;;;2.40;99.90;;;;;;5015634;28;20727;-92
2021/03/18 04:13:36;;;;;;;7.70;4.70;;;2.30;99.90;;;;;;5012460;28;20607;-92
2021/03/18 04:16:05;;;;;;;5.70;5.10;;;2.40;99.90;;;;;;5014427;28;20616;-92
2021/03/18 04:18:36;;;;;;;5.83;4.53;;;2.30;99.90;;;;;;5005677;28;20643;-93
2021/03/18 04:21:07;;;;;;;6.07;5.00;;;2.30;99.90;;;;;;5013664;28;20655;-93
2021/03/18 04:23:38;;;;;;;6.70;5.00;;;2.40;99.90;;;;;;5010646;28;21038;-92
2021/03/18 04:26:06;;;;;;;5.53;5.03;;;2.40;99.90;;;;;;5008143;28;20710;-92
2021/03/18 04:28:35;;;;;;;4.97;4.57;;;2.40;99.90;;;;;;5010846;28;20661;-90
2021/03/18 04:31:05;;;;;;;7.93;5.57;;;2.30;99.90;;;;;;5011864;28;20659;-89
2021/03/18 04:33:33;;;;;;;7.73;4.87;;;2.30;99.90;;;;;;5013018;28;20608;-91
2021/03/18 04:36:02;;;;;;;5.97;5.13;;;2.30;99.90;;;;;;5011806;28;20640;-91
2021/03/18 04:38:30;;;;;;;7.37;6.20;;;2.30;99.90;;;;;;5012828;28;21178;-91
2021/03/18 04:40:57;;;;;;;5.87;5.10;;;2.20;99.90;;;;;;5017592;28;20664;-91
2021/03/18 04:43:25;;;;;;;5.23;4.83;;;2.20;99.90;;;;;;5013619;28;20595;-90
2021/03/18 04:45:53;;;;;;;6.27;5.50;;;2.40;99.90;;;;;;5017661;28;21074;-90
2021/03/18 04:48:22;;;;;;;7.97;6.00;;;2.30;99.90;;;;;;5018945;28;20660;-91
2021/03/18 04:50:50;;;;;;;6.23;5.53;;;2.40;99.90;;;;;;5000838;28;20616;-92
2021/03/18 04:53:18;;;;;;;5.63;5.13;;;2.30;99.90;;;;;;4995211;28;20628;-92
2021/03/18 04:55:45;;;;;;;6.20;5.57;;;2.20;99.90;;;;;;5010103;28;20678;-92
2021/03/18 04:58:12;;;;;;;8.97;6.63;;;2.30;99.90;;;;;;5013347;28;20664;-93
2021/03/18 05:00:40;;;;;;;7.90;5.43;;;2.30;99.90;;;;;;5014481;28;20633;-92
2021/03/18 05:03:08;;;;;;;7.33;5.90;;;2.30;99.90;;;;;;5013369;28;20640;-91
2021/03/18 05:05:38;;;;;;;5.30;4.83;;;2.30;99.90;;;;;;5014679;28;20631;-91
2021/03/18 05:08:06;;;;;;;5.90;5.37;;;2.20;99.90;;;;;;5006864;28;20758;-92
2021/03/18 05:10:35;;;;;;;8.43;6.47;;;2.40;99.90;;;;;;5006027;28;20632;-91
2021/03/18 05:13:05;;;;;;;7.50;6.57;;;2.30;99.90;;;;;;5025460;28;20618;-91
2021/03/18 05:15:34;;;;;;;6.27;5.77;;;2.30;99.90;;;;;;5019765;28;20607;-91
2021/03/18 05:18:02;;;;;;;6.37;5.77;;;2.20;99.90;;;;;;5018171;28;20759;-90
2021/03/18 05:20:28;;;;;;;6.53;5.80;;;2.20;99.90;;;;;;5010000;28;20635;-91
2021/03/18 05:22:56;;;;;;;7.00;6.30;;;2.10;99.90;;;;;;4999529;28;20624;-93
2021/03/18 05:25:27;;;;;;;6.30;5.60;;;2.20;99.90;;;;;;5035521;28;20622;-90
2021/03/18 05:27:54;;;;;;;6.53;5.83;;;2.20;99.90;;;;;;5035807;28;20662;-93
2021/03/18 05:30:22;;;;;;;9.90;5.70;;;2.20;99.90;;;;;;5047852;28;20631;-92
2021/03/18 05:32:49;;;;;;;5.63;5.13;;;2.20;99.90;;;;;;5039795;28;20627;-91
2021/03/18 05:35:15;;;;;;;8.10;6.20;;;2.10;99.90;;;;;;5034521;28;20615;-91
2021/03/18 05:37:43;;;;;;;6.13;5.53;;;2.10;99.90;;;;;;5040438;28;21017;-91
2021/03/18 05:40:13;;;;;;;7.60;6.20;;;2.20;99.90;;;;;;5038889;28;20615;-91
2021/03/18 05:42:40;;;;;;;7.27;6.37;;;2.20;99.90;;;;;;5014695;28;20655;-91
2021/03/18 05:45:09;;;;;;;6.93;6.33;;;2.20;99.90;;;;;;5039436;28;20616;-92
2021/03/18 05:47:36;;;;;;;6.97;6.30;;;2.20;99.90;;;;;;5036613;28;20632;-92
2021/03/18 05:50:06;;;;;;;6.77;6.17;;;2.20;99.90;;;;;;5036011;28;20600;-92
2021/03/18 05:52:34;;;;;;;7.73;7.13;;;2.20;99.90;;;;;;5033291;28;20600;-92
2021/03/18 05:55:05;;;;;;;9.70;6.43;;;2.20;99.90;;;;;;5035362;28;21599;-90
2021/03/18 05:57:34;;;;;;;6.77;6.17;;;2.20;99.90;;;;;;5029722;28;20680;-91
2021/03/18 06:00:01;;;;;;;7.70;7.00;;;2.10;99.90;;;;;;5033059;28;20612;-91
2021/03/18 06:02:27;;;;;;;6.60;6.00;;;2.30;99.90;;;;;;5023129;28;20631;-91
2021/03/18 06:04:55;;;;;;;7.40;6.60;;;2.30;99.90;;;;;;5035523;28;20668;-90
2021/03/18 06:07:22;;;;;;;7.97;7.17;;;2.30;99.90;;;;;;5017133;28;20977;-91
2021/03/18 06:09:48;;;;;;;6.63;6.03;;;2.30;99.90;;;;;;5015971;28;20725;-91
2021/03/18 06:12:14;;;;;;;6.73;6.10;;;2.40;99.90;;;;;;5021289;28;21368;-91
2021/03/18 06:14:45;;;;;;;7.00;5.47;;;2.40;99.90;;;;;;5025107;28;20628;-90
2021/03/18 06:17:12;;;;;;;7.00;4.97;;;2.40;99.90;;;;;;5017630;28;20674;-91
2021/03/18 06:19:38;;;;;;;7.50;6.23;;;2.50;99.90;;;;;;5015893;28;20611;-90
2021/03/18 06:22:04;;;;;;;6.47;5.50;;;2.50;99.90;;;;;;5016899;28;20622;-91
2021/03/18 06:24:33;;;;;;;5.63;5.23;;;2.50;99.90;;;;;;5037091;28;20617;-89
2021/03/18 06:26:59;;;;;;;5.00;4.60;;;2.60;99.90;;;;;;5028863;28;20825;-90
2021/03/18 06:29:32;;;;;;;8.80;5.97;;;2.80;99.90;;;;;;5016788;28;20623;-89
2021/03/18 06:32:16;;;;;;;7.47;5.80;;;2.90;99.90;;;;;;5015520;28;20631;-90
2021/03/18 06:34:45;;;;;;;6.47;5.17;;;3.10;99.90;;;;;;5018020;28;20631;-90
2021/03/18 06:37:33;;;;;;;10.73;5.30;;;3.10;99.90;;;;;;5019467;28;20697;-89
2021/03/18 06:40:01;;;;;;;7.80;5.47;;;3.30;99.90;;;;;;5014109;28;21073;-90
2021/03/18 06:42:29;;;;;;;5.50;5.03;;;3.30;99.90;;;;;;5016961;28;20649;-90
2021/03/18 06:45:11;;;;;;;5.50;4.60;;;3.30;99.90;;;;;;5019047;28;20624;-90
2021/03/18 06:47:44;;;;;;;7.13;5.07;;;3.30;99.90;;;;;;5017014;28;20663;-90
2021/03/18 06:50:13;;;;;;;6.43;4.70;;;3.30;99.90;;;;;;5012918;28;20687;-89
2021/03/18 06:52:41;;;;;;;5.43;4.93;;;3.20;99.90;;;;;;5012859;28;20623;-90
2021/03/18 06:55:12;;;;;;;7.03;5.83;;;3.10;99.90;;;;;;5012740;28;20669;-90
2021/03/18 06:57:39;;;;;;;7.07;5.00;;;3.10;99.90;;;;;;5013388;28;21069;-90
2021/03/18 07:00:08;;;;;;;7.50;5.90;;;3.10;99.90;;;;;;5016483;28;20641;-89
2021/03/18 07:02:40;;;;;;;7.13;5.73;;;3.00;99.90;;;;;;5021807;28;20651;-90
2021/03/18 07:05:19;;;;;;;6.87;4.63;;;3.10;99.90;;;;;;5037062;28;20626;-89
2021/03/18 07:07:47;;;;;;;5.87;5.10;;;3.10;99.90;;;;;;5018608;28;21285;-89
2021/03/18 07:10:15;;;;;;;8.47;6.47;;;3.20;99.90;;;;;;5018304;28;20700;-89
2021/03/18 07:12:41;;;;;;;7.80;5.67;;;3.10;99.90;;;;;;5013644;28;20615;-90
2021/03/18 07:15:18;;;;;;;7.17;5.27;;;3.10;99.90;;;;;;5017884;28;20673;-90
2021/03/18 07:17:46;;;;;;;7.53;6.30;;;3.20;99.90;;;;;;5015067;28;20663;-90
2021/03/18 07:20:15;;;;;;;7.20;6.40;;;3.40;99.90;;;;;;5014972;28;20671;-89
2021/03/18 07:22:44;;;;;;;7.63;6.93;;;3.40;99.90;;;;;;5013505;28;20650;-90
2021/03/18 07:25:12;;;;;;;8.83;5.90;;;3.60;99.90;;;;;;5016339;28;20710;-90
2021/03/18 07:27:41;;;;;;;7.33;6.53;;;3.70;99.90;;;;;;5013361;28;20763;-90
2021/03/18 07:30:09;;;;;;;7.77;7.13;;;3.60;99.90;;;;;;5011687;28;20620;-90
2021/03/18 07:32:36;;;;;;;9.00;7.47;;;3.50;99.90;;;;;;5013815;28;20644;-89
2021/03/18 07:35:04;;;;;;;8.03;6.87;;;3.60;99.90;;;;;;5026046;28;20632;-90
2021/03/18 07:37:31;;;;;;;12.83;7.63;;;3.70;99.90;;;;;;5035637;28;20718;-91
2021/03/18 07:40:00;;;;;;;6.77;5.97;;;3.60;99.90;;;;;;5022097;28;20646;-90
2021/03/18 07:42:27;;;;;;;6.80;6.10;;;3.70;99.90;;;;;;5015417;28;20631;-87
2021/03/18 07:44:54;;;;;;;8.50;6.10;;;3.70;99.90;;;;;;5015254;28;20730;-88
2021/03/18 07:47:23;;;;;;;7.60;6.73;;;3.80;99.90;;;;;;5014352;28;20686;-88
2021/03/18 07:49:52;;;;;;;12.33;6.67;;;3.80;99.90;;;;;;5011005;28;20688;-90
2021/03/18 07:52:20;;;;;;;8.37;7.47;;;4.10;99.90;;;;;;5015661;28;21367;-90
2021/03/18 07:54:49;;;;;;;7.63;6.93;;;4.30;99.90;;;;;;5012602;28;20825;-91
2021/03/18 07:57:17;;;;;;;8.60;7.70;;;4.30;99.90;;;;;;5025470;28;21005;-90
2021/03/18 07:59:47;;;;;;;7.37;6.67;;;4.50;99.90;;;;;;5019284;28;21724;-91
2021/03/18 08:02:16;;;;;;;7.60;6.90;;;4.40;99.90;;;;;;5016625;28;20623;-89
2021/03/18 08:04:44;;;;;;;7.60;7.00;;;4.70;99.90;;;;;;5001546;28;20664;-90
2021/03/18 08:07:10;;;;;;;7.87;7.07;;;5.00;99.90;;;;;;5014042;28;20615;-92
2021/03/18 08:09:52;;;;;;;9.07;8.03;;;5.00;99.90;;;;;;4991756;28;20691;-89
2021/03/18 08:12:52;;;;;;;7.63;6.83;;;4.90;99.90;;;;;;4986822;28;20713;-89
2021/03/18 08:15:33;;;;;;;8.33;7.63;;;5.00;99.90;;;;;;4930446;29;21162;-90
2021/03/18 08:18:42;;;;;;;11.83;8.27;;;4.90;99.90;;;;;;4936578;29;20766;-90
2021/03/18 08:21:12;;;;;;;9.10;7.63;;;5.30;99.90;;;;;;5000306;28;20689;-90
2021/03/18 08:23:52;;;;;;;15.20;8.40;;;5.30;99.90;;;;;;5016418;28;20671;-91
2021/03/18 08:26:44;;;;;;;8.57;7.53;;;5.70;99.90;;;;;;5011649;28;20845;-89
2021/03/18 08:29:21;;;;;;;12.10;8.43;;;5.80;99.90;;;;;;5025239;28;21013;-90
2021/03/18 08:32:00;;;;;;;11.00;8.07;;;6.00;99.90;;;;;;4999027;28;20673;-91
2021/03/18 08:34:45;;;;;;;9.87;8.97;;;6.10;99.90;;;;;;5012276;28;20646;-90
2021/03/18 08:37:11;;;;;;;10.13;7.90;;;6.20;99.90;;;;;;5002527;28;20662;-91
2021/03/18 08:39:42;;;;;;;10.00;7.93;;;6.50;99.90;;;;;;5013049;28;21027;-91
2021/03/18 08:42:35;;;;;;;9.07;8.17;;;6.70;99.90;;;;;;4997140;28;20662;-90
2021/03/18 08:45:31;;;;;;;11.47;8.20;;;6.60;99.90;;;;;;5012541;28;20682;-91
2021/03/18 08:48:08;;;;;;;8.80;7.90;;;6.70;99.90;;;;;;5005417;28;20640;-90
2021/03/18 08:51:03;;;;;;;8.97;8.17;;;6.70;99.90;;;;;;5011425;28;20990;-91
2021/03/18 08:53:43;;;;;;;8.33;7.63;;;7.20;99.20;;;;;;5004202;28;20643;-91
2021/03/18 08:56:10;;;;;;;8.50;7.27;;;6.80;98.90;;;;;;5013974;28;20738;-89
2021/03/18 08:58:48;;;;;;;6.70;6.00;;;6.30;99.90;;;;;;4998384;28;20705;-89
2021/03/18 09:01:17;;;;;;;7.97;6.30;;;6.20;99.90;;;;;;5009528;28;20614;-91
2021/03/18 09:03:44;;;;;;;8.07;7.00;;;6.20;99.90;;;;;;5006741;28;20646;-92
2021/03/18 09:06:12;;;;;;;9.17;6.40;;;6.20;99.90;;;;;;5009691;28;20697;-90
2021/03/18 09:08:38;;;;;;;7.80;6.53;;;6.40;99.90;;;;;;5012609;28;20674;-90
2021/03/18 09:11:06;;;;;;;8.00;6.80;;;6.00;99.90;;;;;;5010540;28;20635;-90
2021/03/18 09:13:35;;;;;;;8.37;6.50;;;5.80;99.90;;;;;;5006148;28;20901;-91
2021/03/18 09:16:02;;;;;;;7.83;7.13;;;5.90;99.90;;;;;;5010787;28;20632;-90
2021/03/18 09:18:33;;;;;;;7.80;7.00;;;6.00;99.90;;;;;;5004626;28;21289;-90
2021/03/18 09:21:01;;;;;;;7.37;6.43;;;6.10;99.90;;;;;;5005546;28;20628;-90
2021/03/18 09:23:29;;;;;;;11.17;7.53;;;6.20;99.90;;;;;;5010330;28;20628;-90
2021/03/18 09:25:59;;;;;;;8.60;7.67;;;6.00;99.90;;;;;;5011937;28;20695;-90
2021/03/18 09:28:25;;;;;;;8.60;7.80;;;5.70;99.90;;;;;;5014393;28;20654;-90
2021/03/18 09:30:54;;;;;;;7.57;6.87;;;5.90;99.90;;;;;;5012483;28;20636;-90
2021/03/18 09:33:25;;;;;;;8.00;7.20;;;6.00;99.90;;;;;;5017480;28;20751;-90
2021/03/18 09:35:54;;;;;;;7.00;6.30;;;6.10;99.90;;;;;;5018721;28;20634;-92
2021/03/18 09:38:23;;;;;;;8.33;6.77;;;6.00;99.90;;;;;;5014566;28;20683;-91
2021/03/18 09:40:50;;;;;;;7.90;7.03;;;6.30;99.90;;;;;;5016826;28;20720;-90
2021/03/18 09:43:18;;;;;;;7.70;6.50;;;6.20;99.90;;;;;;5011143;28;20612;-89
2021/03/18 09:45:53;;;;;;;7.70;6.90;;;5.90;99.90;;;;;;5032449;28;20632;-90
2021/03/18 09:48:27;;;;;;;10.50;7.30;;;5.90;99.90;;;;;;5032733;28;20683;-91
2021/03/18 09:51:03;;;;;;;7.40;6.67;;;5.80;99.90;;;;;;5035521;28;20710;-92
2021/03/18 09:53:31;;;;;;;6.90;6.30;;;5.90;99.90;;;;;;5028260;28;20662;-92
2021/03/18 09:56:02;;;;;;;6.20;5.70;;;5.90;99.80;;;;;;5013462;28;20628;-92
2021/03/18 09:58:29;;;;;;;9.63;6.20;;;6.10;99.50;;;;;;5013874;28;21060;-91
2021/03/18 10:00:55;;;;;;;7.57;6.40;;;6.30;99.60;;;;;;5020357;28;20666;-92
2021/03/18 10:03:22;;;;;;;7.17;6.47;;;6.30;99.70;;;;;;4997235;28;20666;-92
2021/03/18 10:05:49;;;;;;;7.50;5.60;;;6.20;99.90;;;;;;5006625;28;20628;-92
2021/03/18 10:08:26;;;;;;;9.30;6.70;;;6.40;99.70;;;;;;4995509;28;20718;-91
2021/03/18 10:10:52;;;;;;;8.20;6.13;;;6.50;98.20;;;;;;5008061;28;20643;-91
2021/03/18 10:13:19;;;;;;;8.03;6.40;;;6.60;98.60;;;;;;5017266;28;20599;-91
2021/03/18 10:16:02;;;;;;;11.10;6.43;;;6.30;99.20;;;;;;5018737;28;21222;-91
2021/03/18 10:18:29;;;;;;;9.37;6.27;;;6.40;99.00;;;;;;5014873;28;21291;-92
2021/03/18 10:20:57;;;;;;;6.17;5.57;;;6.30;99.50;;;;;;5001474;28;20677;-92
2021/03/18 10:23:26;;;;;;;7.67;6.40;;;6.40;99.20;;;;;;5012200;28;20694;-92
2021/03/18 10:25:52;;;;;;;8.87;6.40;;;6.50;99.90;;;;;;5014107;28;20632;-92
2021/03/18 10:28:24;;;;;;;6.70;6.03;;;6.70;99.40;;;;;;5011677;28;21276;-92
2021/03/18 10:30:52;;;;;;;6.20;5.60;;;7.00;99.10;;;;;;5015399;28;20698;-91
2021/03/18 10:33:22;;;;;;;7.03;5.37;;;7.10;97.00;;;;;;5035310;28;20620;-91
2021/03/18 10:35:59;;;;;;;5.90;5.30;;;6.90;96.80;;;;;;5041600;28;20642;-92
2021/03/18 10:38:31;;;;;;;6.03;4.77;;;7.10;96.30;;;;;;5037194;28;20674;-90
2021/03/18 10:41:03;;;;;;;5.63;5.00;;;6.90;95.70;;;;;;5037801;28;20615;-92
2021/03/18 10:43:31;;;;;;;4.87;4.27;;;7.50;95.60;;;;;;5028381;28;20628;-93
2021/03/18 10:46:01;;;;;;;4.53;4.03;;;7.30;93.70;;;;;;5033602;28;20632;-92
2021/03/18 10:48:30;;;;;;;7.47;4.30;;;7.40;94.80;;;;;;5031392;28;20643;-92
2021/03/18 10:51:03;;;;;;;3.67;3.37;;;7.50;94.70;;;;;;5029429;28;20695;-91
2021/03/18 10:53:35;;;;;;;4.47;4.07;;;7.70;94.40;;;;;;5029937;28;20635;-91
2021/03/18 10:56:03;;;;;;;4.67;4.23;;;8.10;92.20;;;;;;5027308;28;20631;-91
2021/03/18 10:58:31;;;;;;;4.30;3.90;;;8.00;91.20;;;;;;5027369;28;20681;-92
2021/03/18 11:00:59;;;;;;;10.63;4.70;;;8.00;91.60;;;;;;5019880;28;20695;-91
2021/03/18 11:03:29;;;;;;;5.03;4.53;;;8.10;92.90;;;;;;5016135;28;20628;-91
2021/03/18 11:05:55;;;;;;;4.90;4.20;;;7.90;93.10;;;;;;5019787;28;20620;-91
2021/03/18 11:08:27;;;;;;;5.00;3.90;;;8.20;93.00;;;;;;5014811;28;20686;-91
2021/03/18 11:11:10;;;;;;;3.40;3.10;;;7.90;92.20;;;;;;5013973;28;20635;-91
2021/03/18 11:13:37;;;;;;;4.27;3.87;;;8.10;91.50;;;;;;5015569;28;20658;-91
2021/03/18 11:16:07;;;;;;;5.03;4.40;;;8.20;91.60;;;;;;5022858;28;20634;-92
2021/03/18 11:18:36;;;;;;;5.40;4.10;;;8.10;91.50;;;;;;5015741;28;20858;-92
2021/03/18 11:21:04;;;;;;;5.70;4.20;;;8.00;91.70;;;;;;5014687;28;20642;-91
2021/03/18 11:23:34;;;;;;;4.63;3.70;;;8.90;91.40;;;;;;5017445;28;21007;-91
2021/03/18 11:26:05;;;;;;;6.00;4.47;;;8.80;88.10;;;;;;5014980;28;20647;-90
2021/03/18 11:28:33;;;;;;;3.43;3.13;;;9.20;87.10;;;;;;5016391;28;20674;-91
2021/03/18 11:31:10;;;;;;;4.73;4.33;;;9.20;86.50;;;;;;5019831;28;20622;-90
2021/03/18 11:33:37;;;;;;;4.30;3.83;;;8.70;88.70;;;;;;5018311;28;20691;-90
2021/03/18 11:36:05;;;;;;;8.17;4.60;;;8.90;91.00;;;;;;5020143;28;20638;-91
2021/03/18 11:38:33;;;;;;;5.77;4.43;;;8.90;91.80;;;;;;5038382;28;20735;-92
2021/03/18 11:41:01;;;;;;;9.77;5.50;;;9.30;90.70;;;;;;5026651;28;21175;-91
2021/03/18 11:43:28;;;;;;;5.60;5.10;;;8.90;90.90;;;;;;5015569;28;20639;-90
2021/03/18 11:45:55;;;;;;;9.53;5.40;;;9.00;90.50;;;;;;5019263;28;20696;-93
2021/03/18 11:48:22;;;;;;;5.27;4.80;;;8.80;91.20;;;;;;5014432;28;20663;-91
2021/03/18 11:50:48;;;;;;;5.50;4.83;;;9.30;91.30;;;;;;5019751;28;20675;-92
2021/03/18 11:53:15;;;;;;;4.67;4.27;;;10.40;87.50;;;;;;5014967;28;20681;-91
2021/03/18 11:55:42;;;;;;;7.53;4.13;;;9.60;87.20;;;;;;5016851;28;20617;-91
2021/03/18 11:58:10;;;;;;;5.33;4.20;;;9.00;89.80;;;;;;5014999;28;20675;-90
2021/03/18 12:00:38;;;;;;;8.23;5.40;;;9.10;90.80;;;;;;5016442;28;20636;-92
2021/03/18 12:03:07;;;;;;;8.67;5.13;;;9.20;88.70;;;;;;5007022;28;20640;-93
2021/03/18 12:05:34;;;;;;;5.47;4.93;;;9.10;90.70;;;;;;5019213;28;20700;-89
2021/03/18 12:08:01;;;;;;;4.70;4.37;;;9.20;90.60;;;;;;5022320;28;20738;-91
2021/03/18 12:10:29;;;;;;;5.27;4.87;;;8.80;88.00;;;;;;5014486;28;20632;-92
2021/03/18 12:12:55;;;;;;;6.77;4.27;;;8.70;87.00;;;;;;5014030;28;20689;-91
2021/03/18 12:15:23;;;;;;;5.33;4.57;;;8.60;90.10;;;;;;5012744;28;20632;-92
2021/03/18 12:17:49;;;;;;;4.23;3.83;;;8.80;89.00;;;;;;5006422;28;21108;-92
2021/03/18 12:20:18;;;;;;;5.43;4.90;;;9.10;90.10;;;;;;5011644;28;21217;-91
2021/03/18 12:22:45;;;;;;;6.70;4.37;;;9.00;88.30;;;;;;5009003;28;20660;-91
2021/03/18 12:25:13;;;;;;;3.87;3.57;;;8.70;90.30;;;;;;5014338;28;20626;-92
2021/03/18 12:27:41;;;;;;;3.80;3.50;;;9.00;90.30;;;;;;5008967;28;20706;-92
2021/03/18 12:30:10;;;;;;;4.30;4.00;;;8.70;88.20;;;;;;5004238;28;20647;-90
2021/03/18 12:32:39;;;;;;;4.90;4.50;;;8.50;86.20;;;;;;5008272;28;21104;-91
2021/03/18 12:35:08;;;;;;;4.80;4.40;;;7.50;92.40;;;;;;5009168;28;20623;-90
2021/03/18 12:37:35;;;;;;;5.67;4.50;;;7.20;94.80;;;;;;5006269;28;21297;-90
2021/03/18 12:40:02;;;;;;;7.17;6.57;;;7.00;96.50;;;;;;5012085;28;21178;-91
2021/03/18 12:42:30;;;;;;;7.63;4.70;;;6.70;98.20;;;;;;5012640;28;20635;-90
2021/03/18 12:44:57;;;;;;;5.77;4.30;;;6.30;99.00;;;;;;5003857;28;20631;-90
2021/03/18 12:47:24;;;;;;;7.30;4.90;;;6.30;99.00;;;;;;5008698;28;20715;-91
2021/03/18 12:49:51;;;;;;;5.47;4.60;;;6.40;98.80;;;;;;5008256;28;20720;-90
2021/03/18 12:52:17;;;;;;;5.03;4.43;;;5.90;98.80;;;;;;5011864;28;20992;-90
2021/03/18 12:54:45;;;;;;;5.37;4.93;;;5.80;99.50;;;;;;5016081;28;20631;-91
2021/03/18 12:57:13;;;;;;;5.03;4.60;;;5.90;99.30;;;;;;5022558;28;20720;-94
2021/03/18 12:59:41;;;;;;;4.77;4.40;;;5.80;99.20;;;;;;5024211;28;20673;-94
2021/03/18 13:02:08;;;;;;;5.53;5.00;;;6.10;99.10;;;;;;5025217;28;20680;-94
2021/03/18 13:04:35;;;;;;;6.27;5.17;;;6.20;98.40;;;;;;5027151;28;20711;-93
2021/03/18 13:09:47;;;;;;;4.83;4.40;;;6.70;97.50;;;;;;5013990;28;20701;-94